地図

経路データ

SID SEASON NUMBER BASIN SUBBASIN NAME ISO_TIME NATURE LAT LON WMO_WIND WMO_PRES WMO_AGENCY TRACK_TYPE DIST2LAND LANDFALL IFLAG USA_AGENCY USA_ATCF_ID USA_LAT USA_LON USA_RECORD USA_STATUS USA_WIND USA_PRES USA_SSHS USA_R34_NE USA_R34_SE USA_R34_SW USA_R34_NW USA_R50_NE USA_R50_SE USA_R50_SW USA_R50_NW USA_R64_NE USA_R64_SE USA_R64_SW USA_R64_NW USA_POCI USA_ROCI USA_RMW USA_EYE TOKYO_LAT TOKYO_LON TOKYO_GRADE TOKYO_WIND TOKYO_PRES TOKYO_R50_DIR TOKYO_R50_LONG TOKYO_R50_SHORT TOKYO_R30_DIR TOKYO_R30_LONG TOKYO_R30_SHORT TOKYO_LAND CMA_LAT CMA_LON CMA_CAT CMA_WIND CMA_PRES HKO_LAT HKO_LON HKO_CAT HKO_WIND HKO_PRES NEWDELHI_LAT NEWDELHI_LON NEWDELHI_GRADE NEWDELHI_WIND NEWDELHI_PRES NEWDELHI_CI NEWDELHI_DP NEWDELHI_POCI REUNION_LAT REUNION_LON REUNION_TYPE REUNION_WIND REUNION_PRES REUNION_TNUM REUNION_CI REUNION_RMW REUNION_R34_NE REUNION_R34_SE REUNION_R34_SW REUNION_R34_NW REUNION_R50_NE REUNION_R50_SE REUNION_R50_SW REUNION_R50_NW REUNION_R64_NE REUNION_R64_SE REUNION_R64_SW REUNION_R64_NW BOM_LAT BOM_LON BOM_TYPE BOM_WIND BOM_PRES BOM_TNUM BOM_CI BOM_RMW BOM_R34_NE BOM_R34_SE BOM_R34_SW BOM_R34_NW BOM_R50_NE BOM_R50_SE BOM_R50_SW BOM_R50_NW BOM_R64_NE BOM_R64_SE BOM_R64_SW BOM_R64_NW BOM_ROCI BOM_POCI BOM_EYE BOM_POS_METHOD BOM_PRES_METHOD NADI_LAT NADI_LON NADI_CAT NADI_WIND NADI_PRES WELLINGTON_LAT WELLINGTON_LON WELLINGTON_WIND WELLINGTON_PRES DS824_LAT DS824_LON DS824_STAGE DS824_WIND DS824_PRES TD9636_LAT TD9636_LON TD9636_STAGE TD9636_WIND TD9636_PRES TD9635_LAT TD9635_LON TD9635_WIND TD9635_PRES TD9635_ROCI NEUMANN_LAT NEUMANN_LON NEUMANN_CLASS NEUMANN_WIND NEUMANN_PRES MLC_LAT MLC_LON MLC_CLASS MLC_WIND MLC_PRES USA_GUST BOM_GUST BOM_GUST_PER REUNION_GUST REUNION_GUST_PER USA_SEAHGT USA_SEARAD_NE USA_SEARAD_SE USA_SEARAD_SW USA_SEARAD_NW STORM_SPEED STORM_DIR
1959013S20042 1959 5 SI MM NOT_NAMED 1959-01-13 06:00:00 NR -20.5000 42.3000 reunion main 160 160 _____O________ -1 -20.5000 42.3000 99 9.90000 1 0
1959013S20042 1959 5 SI MM NOT_NAMED 1959-01-13 09:00:00 NR -20.4397 42.3173 main 167 167 _____P________ -1 -20.4397 42.3173 99 1 19
1959013S20042 1959 5 SI MM NOT_NAMED 1959-01-13 12:00:00 NR -20.3876 42.3472 main 167 159 _____P________ -1 -20.3876 42.3472 99 1 42
1959013S20042 1959 5 SI MM NOT_NAMED 1959-01-13 15:00:00 NR -20.3518 42.4023 main 159 156 _____P________ -1 -20.3518 42.4023 99 1 71
1959013S20042 1959 5 SI MM NOT_NAMED 1959-01-13 18:00:00 NR -20.3404 42.4952 main 156 142 _____P________ -1 -20.3404 42.4952 99 2 93
1959013S20042 1959 5 SI MM NOT_NAMED 1959-01-13 21:00:00 NR -20.3616 42.6385 main 142 122 _____P________ -1 -20.3616 42.6385 99 3 104
1959013S20042 1959 5 SI MM NOT_NAMED 1959-01-14 00:00:00 NR -20.4234 42.8451 main 122 89 _____P________ -1 -20.4234 42.8451 99 5 111
1959013S20042 1959 5 SI MM NOT_NAMED 1959-01-14 03:00:00 NR -20.5336 43.1279 main 89 43 _____P________ -1 -20.5336 43.1279 99 7 114
1959013S20042 1959 5 SI MM NOT_NAMED 1959-01-14 06:00:00 NR -20.7000 43.5000 reunion main 43 0 _____O________ -1 -20.7000 43.5000 99 9.90000 9 117
1959013S20042 1959 5 SI MM NOT_NAMED 1959-01-14 09:00:00 NR -20.9277 43.9704 main 0 0 _____P________ -1 -20.9277 43.9704 99 11 118
1959013S20042 1959 5 SI MM NOT_NAMED 1959-01-14 12:00:00 NR -21.2117 44.5301 main 0 0 _____P________ -1 -21.2117 44.5301 99 13 119
1959013S20042 1959 5 SI MM NOT_NAMED 1959-01-14 15:00:00 NR -21.5448 45.1654 main 0 0 _____P________ -1 -21.5448 45.1654 99 14 120
1959013S20042 1959 5 SI MM NOT_NAMED 1959-01-14 18:00:00 NR -21.9197 45.8629 main 0 0 _____P________ -1 -21.9197 45.8629 99 16 120
1959013S20042 1959 5 SI MM NOT_NAMED 1959-01-14 21:00:00 NR -22.3294 46.6090 main 0 0 _____P________ -1 -22.3294 46.6090 99 16 121
1959013S20042 1959 5 SI MM NOT_NAMED 1959-01-15 00:00:00 NR -22.7670 47.3897 main 0 0 _____P________ -1 -22.7670 47.3897 99 17 122
1959013S20042 1959 5 SI MM NOT_NAMED 1959-01-15 03:00:00 NR -23.2259 48.1914 main 51 51 _____P________ -1 -23.2259 48.1914 99 18 122
1959013S20042 1959 5 SI MM NOT_NAMED 1959-01-15 06:00:00 NR -23.7000 49.0000 reunion main 136 136 _____O________ -1 -23.7000 49.0000 99 9.90000 18 123
1959013S20042 1959 5 SI MM NOT_NAMED 1959-01-15 09:00:00 NR -24.1841 49.8041 main 231 231 _____P________ -1 -24.1841 49.8041 99 18 124
1959013S20042 1959 5 SI MM NOT_NAMED 1959-01-15 12:00:00 NR -24.6760 50.6031 main 323 323 _____P________ -1 -24.6760 50.6031 99 18 124
1959013S20042 1959 5 SI MM NOT_NAMED 1959-01-15 15:00:00 NR -25.1744 51.3992 main 416 416 _____P________ -1 -25.1744 51.3992 99 18 125
1959013S20042 1959 5 SI MM NOT_NAMED 1959-01-15 18:00:00 NR -25.6774 52.1944 main 510 510 _____P________ -1 -25.6774 52.1944 99 18 125
1959013S20042 1959 5 SI MM NOT_NAMED 1959-01-15 21:00:00 NR -26.1834 52.9905 main 595 591 _____P________ -1 -26.1834 52.9905 99 18 125
1959013S20042 1959 5 SI MM NOT_NAMED 1959-01-16 00:00:00 NR -26.6906 53.7891 main 619 616 _____P________ -1 -26.6906 53.7891 99 18 125
1959013S20042 1959 5 SI MM NOT_NAMED 1959-01-16 03:00:00 NR -27.1968 54.5918 main 655 655 _____P________ -1 -27.1968 54.5918 99 18 125
1959013S20042 1959 5 SI MM NOT_NAMED 1959-01-16 06:00:00 NR -27.7000 55.4000 reunion main 704 _____O________ -1 -27.7000 55.4000 99 9.90000 18 125

IBTrACS Databaseについて

本データベースは、米国NOAAが公開する1842年以降の世界の熱帯低気圧のベストトラックデータアーカイブInternational Best Track Archive for Climate Stewardship (IBTrACS)を、ウェブで閲覧しやすい形式に変換したものです。

最終更新日:2021-10-25